sensor_id;sensor_type;location;lat;lon;timestamp;P1;durP1;ratioP1;P2;durP2;ratioP2
75603;SDS011;64187;51.010;13.792;2023-01-25T00:02:58;35.67;;;14.25;;
75603;SDS011;64187;51.010;13.792;2023-01-25T00:07:57;32.03;;;13.27;;
75603;SDS011;64187;51.010;13.792;2023-01-25T00:12:56;28.60;;;13.27;;
75603;SDS011;64187;51.010;13.792;2023-01-25T00:17:54;31.02;;;12.82;;
75603;SDS011;64187;51.010;13.792;2023-01-25T00:22:53;35.90;;;12.90;;
75603;SDS011;64187;51.010;13.792;2023-01-25T00:27:52;32.30;;;13.10;;
75603;SDS011;64187;51.010;13.792;2023-01-25T00:38:23;28.48;;;12.23;;
75603;SDS011;64187;51.010;13.792;2023-01-25T00:43:27;30.42;;;12.68;;
75603;SDS011;64187;51.010;13.792;2023-01-25T00:48:26;29.73;;;13.02;;
75603;SDS011;64187;51.010;13.792;2023-01-25T00:53:24;26.67;;;11.50;;
75603;SDS011;64187;51.010;13.792;2023-01-25T00:58:23;28.20;;;12.32;;
75603;SDS011;64187;51.010;13.792;2023-01-25T01:03:22;24.15;;;10.98;;
75603;SDS011;64187;51.010;13.792;2023-01-25T01:08:21;23.42;;;11.07;;
75603;SDS011;64187;51.010;13.792;2023-01-25T01:13:20;23.33;;;11.07;;
75603;SDS011;64187;51.010;13.792;2023-01-25T01:24:33;24.20;;;11.00;;
75603;SDS011;64187;51.010;13.792;2023-01-25T01:29:33;20.15;;;9.48;;
75603;SDS011;64187;51.010;13.792;2023-01-25T01:34:32;23.65;;;10.07;;
75603;SDS011;64187;51.010;13.792;2023-01-25T01:39:31;20.10;;;9.00;;
75603;SDS011;64187;51.010;13.792;2023-01-25T01:44:47;17.52;;;8.35;;
75603;SDS011;64187;51.010;13.792;2023-01-25T01:49:53;23.70;;;8.75;;
75603;SDS011;64187;51.010;13.792;2023-01-25T01:55:02;22.88;;;9.00;;
75603;SDS011;64187;51.010;13.792;2023-01-25T02:05:59;20.63;;;9.32;;
75603;SDS011;64187;51.010;13.792;2023-01-25T02:10:44;20.38;;;9.15;;
75603;SDS011;64187;51.010;13.792;2023-01-25T02:15:44;17.80;;;9.25;;
75603;SDS011;64187;51.010;13.792;2023-01-25T02:20:46;21.80;;;9.45;;
75603;SDS011;64187;51.010;13.792;2023-01-25T02:25:47;18.77;;;8.00;;
75603;SDS011;64187;51.010;13.792;2023-01-25T02:30:47;17.38;;;8.18;;
75603;SDS011;64187;51.010;13.792;2023-01-25T02:35:52;18.00;;;8.85;;
75603;SDS011;64187;51.010;13.792;2023-01-25T02:40:58;17.20;;;9.23;;
75603;SDS011;64187;51.010;13.792;2023-01-25T02:46:08;18.95;;;9.55;;
75603;SDS011;64187;51.010;13.792;2023-01-25T02:51:14;19.75;;;9.00;;
75603;SDS011;64187;51.010;13.792;2023-01-25T02:56:13;18.10;;;8.32;;
75603;SDS011;64187;51.010;13.792;2023-01-25T03:01:13;19.83;;;8.63;;
75603;SDS011;64187;51.010;13.792;2023-01-25T03:06:12;22.50;;;9.88;;
75603;SDS011;64187;51.010;13.792;2023-01-25T03:11:13;17.27;;;8.70;;
75603;SDS011;64187;51.010;13.792;2023-01-25T03:16:13;17.85;;;8.80;;
75603;SDS011;64187;51.010;13.792;2023-01-25T03:21:16;17.58;;;8.52;;
75603;SDS011;64187;51.010;13.792;2023-01-25T03:26:17;19.30;;;8.40;;
75603;SDS011;64187;51.010;13.792;2023-01-25T03:31:38;21.23;;;8.88;;
75603;SDS011;64187;51.010;13.792;2023-01-25T03:36:37;17.98;;;8.23;;
75603;SDS011;64187;51.010;13.792;2023-01-25T03:41:36;20.98;;;10.63;;
75603;SDS011;64187;51.010;13.792;2023-01-25T03:46:39;18.90;;;8.57;;
75603;SDS011;64187;51.010;13.792;2023-01-25T03:51:39;18.10;;;8.57;;
75603;SDS011;64187;51.010;13.792;2023-01-25T03:56:38;17.52;;;8.20;;
75603;SDS011;64187;51.010;13.792;2023-01-25T04:01:41;18.38;;;9.88;;
75603;SDS011;64187;51.010;13.792;2023-01-25T04:06:40;19.23;;;8.57;;
75603;SDS011;64187;51.010;13.792;2023-01-25T04:11:40;14.60;;;7.45;;
75603;SDS011;64187;51.010;13.792;2023-01-25T04:16:41;16.13;;;7.80;;
75603;SDS011;64187;51.010;13.792;2023-01-25T04:21:58;14.45;;;7.43;;
75603;SDS011;64187;51.010;13.792;2023-01-25T04:27:02;13.45;;;7.00;;
75603;SDS011;64187;51.010;13.792;2023-01-25T04:32:06;13.05;;;6.28;;
75603;SDS011;64187;51.010;13.792;2023-01-25T04:37:05;10.68;;;5.57;;
75603;SDS011;64187;51.010;13.792;2023-01-25T04:42:15;14.27;;;6.65;;
75603;SDS011;64187;51.010;13.792;2023-01-25T04:47:18;14.63;;;7.20;;
75603;SDS011;64187;51.010;13.792;2023-01-25T04:52:17;16.60;;;7.63;;
75603;SDS011;64187;51.010;13.792;2023-01-25T04:57:16;15.00;;;6.28;;
75603;SDS011;64187;51.010;13.792;2023-01-25T05:02:19;14.82;;;7.30;;
75603;SDS011;64187;51.010;13.792;2023-01-25T05:07:18;15.05;;;7.18;;
75603;SDS011;64187;51.010;13.792;2023-01-25T05:12:17;15.45;;;7.05;;
75603;SDS011;64187;51.010;13.792;2023-01-25T05:17:24;13.55;;;6.30;;
75603;SDS011;64187;51.010;13.792;2023-01-25T05:22:23;14.52;;;7.10;;
75603;SDS011;64187;51.010;13.792;2023-01-25T05:27:23;21.83;;;8.35;;
75603;SDS011;64187;51.010;13.792;2023-01-25T05:32:26;12.40;;;5.60;;
75603;SDS011;64187;51.010;13.792;2023-01-25T05:37:24;11.02;;;5.70;;
75603;SDS011;64187;51.010;13.792;2023-01-25T05:42:30;12.73;;;6.75;;
75603;SDS011;64187;51.010;13.792;2023-01-25T05:47:31;15.07;;;7.72;;
75603;SDS011;64187;51.010;13.792;2023-01-25T05:52:31;15.88;;;7.85;;
75603;SDS011;64187;51.010;13.792;2023-01-25T05:57:31;14.48;;;7.88;;
75603;SDS011;64187;51.010;13.792;2023-01-25T06:02:32;10.43;;;6.10;;
75603;SDS011;64187;51.010;13.792;2023-01-25T06:07:34;16.92;;;7.60;;
75603;SDS011;64187;51.010;13.792;2023-01-25T06:12:34;10.60;;;5.90;;
75603;SDS011;64187;51.010;13.792;2023-01-25T06:17:34;9.95;;;5.50;;
75603;SDS011;64187;51.010;13.792;2023-01-25T06:22:49;10.75;;;5.93;;
75603;SDS011;64187;51.010;13.792;2023-01-25T06:27:49;13.90;;;6.20;;
75603;SDS011;64187;51.010;13.792;2023-01-25T06:32:48;12.57;;;6.75;;
75603;SDS011;64187;51.010;13.792;2023-01-25T06:37:47;16.65;;;7.07;;
75603;SDS011;64187;51.010;13.792;2023-01-25T06:42:46;15.25;;;6.82;;
75603;SDS011;64187;51.010;13.792;2023-01-25T06:47:47;14.55;;;6.50;;
75603;SDS011;64187;51.010;13.792;2023-01-25T06:52:53;16.20;;;8.35;;
75603;SDS011;64187;51.010;13.792;2023-01-25T06:57:52;14.88;;;6.80;;
75603;SDS011;64187;51.010;13.792;2023-01-25T07:02:51;15.02;;;6.50;;
75603;SDS011;64187;51.010;13.792;2023-01-25T07:07:50;11.43;;;6.07;;
75603;SDS011;64187;51.010;13.792;2023-01-25T07:12:48;13.07;;;6.63;;
75603;SDS011;64187;51.010;13.792;2023-01-25T07:17:47;11.00;;;5.47;;
75603;SDS011;64187;51.010;13.792;2023-01-25T07:22:46;11.10;;;5.20;;
75603;SDS011;64187;51.010;13.792;2023-01-25T07:27:45;13.70;;;7.03;;
75603;SDS011;64187;51.010;13.792;2023-01-25T07:32:43;16.95;;;7.35;;
75603;SDS011;64187;51.010;13.792;2023-01-25T07:37:42;12.18;;;6.25;;
75603;SDS011;64187;51.010;13.792;2023-01-25T07:42:41;12.85;;;6.07;;
75603;SDS011;64187;51.010;13.792;2023-01-25T07:47:44;11.48;;;6.10;;
75603;SDS011;64187;51.010;13.792;2023-01-25T07:52:43;12.55;;;6.47;;
75603;SDS011;64187;51.010;13.792;2023-01-25T07:57:41;14.38;;;7.32;;
75603;SDS011;64187;51.010;13.792;2023-01-25T08:02:40;15.25;;;7.38;;
75603;SDS011;64187;51.010;13.792;2023-01-25T08:07:39;16.83;;;6.97;;
75603;SDS011;64187;51.010;13.792;2023-01-25T08:12:38;13.82;;;6.32;;
75603;SDS011;64187;51.010;13.792;2023-01-25T08:17:37;15.88;;;7.22;;
75603;SDS011;64187;51.010;13.792;2023-01-25T08:22:36;12.02;;;6.32;;
75603;SDS011;64187;51.010;13.792;2023-01-25T08:27:34;15.05;;;7.50;;
75603;SDS011;64187;51.010;13.792;2023-01-25T08:32:34;14.38;;;8.13;;
75603;SDS011;64187;51.010;13.792;2023-01-25T08:37:35;15.65;;;7.57;;
75603;SDS011;64187;51.010;13.792;2023-01-25T08:42:34;17.33;;;7.72;;
75603;SDS011;64187;51.010;13.792;2023-01-25T08:47:33;12.98;;;6.90;;
75603;SDS011;64187;51.010;13.792;2023-01-25T08:52:31;15.75;;;7.35;;
75603;SDS011;64187;51.010;13.792;2023-01-25T08:57:30;15.95;;;7.05;;
75603;SDS011;64187;51.010;13.792;2023-01-25T09:02:29;16.23;;;6.90;;
75603;SDS011;64187;51.010;13.792;2023-01-25T09:07:28;15.80;;;6.60;;
75603;SDS011;64187;51.010;13.792;2023-01-25T09:12:29;17.05;;;6.30;;
75603;SDS011;64187;51.010;13.792;2023-01-25T09:17:29;12.55;;;6.28;;
75603;SDS011;64187;51.010;13.792;2023-01-25T09:22:28;15.55;;;7.10;;
75603;SDS011;64187;51.010;13.792;2023-01-25T09:27:27;18.80;;;7.93;;
75603;SDS011;64187;51.010;13.792;2023-01-25T09:32:26;16.63;;;7.13;;
75603;SDS011;64187;51.010;13.792;2023-01-25T09:37:25;14.35;;;7.25;;
75603;SDS011;64187;51.010;13.792;2023-01-25T09:42:29;16.85;;;6.63;;
75603;SDS011;64187;51.010;13.792;2023-01-25T09:53:18;17.90;;;7.40;;
75603;SDS011;64187;51.010;13.792;2023-01-25T09:58:18;17.35;;;6.50;;
75603;SDS011;64187;51.010;13.792;2023-01-25T10:03:20;14.23;;;6.43;;
75603;SDS011;64187;51.010;13.792;2023-01-25T10:13:31;11.18;;;5.93;;
75603;SDS011;64187;51.010;13.792;2023-01-25T10:24:12;16.17;;;6.90;;
75603;SDS011;64187;51.010;13.792;2023-01-25T10:29:35;13.98;;;6.15;;
75603;SDS011;64187;51.010;13.792;2023-01-25T10:34:35;13.85;;;6.15;;
75603;SDS011;64187;51.010;13.792;2023-01-25T10:39:56;14.50;;;5.68;;
75603;SDS011;64187;51.010;13.792;2023-01-25T10:45:00;13.85;;;5.95;;
75603;SDS011;64187;51.010;13.792;2023-01-25T10:49:59;14.50;;;6.47;;
75603;SDS011;64187;51.010;13.792;2023-01-25T11:00:52;12.20;;;5.53;;
75603;SDS011;64187;51.010;13.792;2023-01-25T11:05:38;10.70;;;5.10;;
75603;SDS011;64187;51.010;13.792;2023-01-25T11:10:44;11.93;;;5.45;;
75603;SDS011;64187;51.010;13.792;2023-01-25T11:15:44;13.75;;;6.35;;
75603;SDS011;64187;51.010;13.792;2023-01-25T11:20:45;13.95;;;6.40;;
75603;SDS011;64187;51.010;13.792;2023-01-25T11:25:44;16.25;;;6.47;;
75603;SDS011;64187;51.010;13.792;2023-01-25T11:30:43;12.43;;;6.72;;
75603;SDS011;64187;51.010;13.792;2023-01-25T11:51:30;13.05;;;5.78;;
75603;SDS011;64187;51.010;13.792;2023-01-25T12:02:01;10.75;;;5.43;;
75603;SDS011;64187;51.010;13.792;2023-01-25T12:07:04;7.13;;;4.40;;
75603;SDS011;64187;51.010;13.792;2023-01-25T12:12:14;9.23;;;4.50;;
75603;SDS011;64187;51.010;13.792;2023-01-25T12:28:18;8.70;;;4.70;;
75603;SDS011;64187;51.010;13.792;2023-01-25T12:38:32;9.77;;;5.25;;
75603;SDS011;64187;51.010;13.792;2023-01-25T12:43:34;6.82;;;4.20;;
75603;SDS011;64187;51.010;13.792;2023-01-25T12:48:40;7.75;;;4.40;;
75603;SDS011;64187;51.010;13.792;2023-01-25T12:53:45;10.63;;;4.72;;
75603;SDS011;64187;51.010;13.792;2023-01-25T12:58:46;11.85;;;5.35;;
75603;SDS011;64187;51.010;13.792;2023-01-25T13:14:56;12.25;;;5.65;;
75603;SDS011;64187;51.010;13.792;2023-01-25T13:19:55;11.07;;;5.43;;
75603;SDS011;64187;51.010;13.792;2023-01-25T13:30:01;10.70;;;5.25;;
75603;SDS011;64187;51.010;13.792;2023-01-25T13:35:28;9.68;;;5.15;;
75603;SDS011;64187;51.010;13.792;2023-01-25T13:40:36;14.10;;;5.63;;
75603;SDS011;64187;51.010;13.792;2023-01-25T13:45:37;10.48;;;5.22;;
75603;SDS011;64187;51.010;13.792;2023-01-25T13:50:48;12.27;;;6.43;;
75603;SDS011;64187;51.010;13.792;2023-01-25T13:55:51;13.10;;;6.50;;
75603;SDS011;64187;51.010;13.792;2023-01-25T14:00:58;11.68;;;6.25;;
75603;SDS011;64187;51.010;13.792;2023-01-25T14:06:04;10.82;;;4.70;;
75603;SDS011;64187;51.010;13.792;2023-01-25T14:11:04;10.57;;;5.10;;
75603;SDS011;64187;51.010;13.792;2023-01-25T14:16:07;10.90;;;5.35;;
75603;SDS011;64187;51.010;13.792;2023-01-25T14:26:18;11.55;;;6.57;;
75603;SDS011;64187;51.010;13.792;2023-01-25T14:31:26;13.68;;;6.50;;
75603;SDS011;64187;51.010;13.792;2023-01-25T14:36:31;15.30;;;7.43;;
75603;SDS011;64187;51.010;13.792;2023-01-25T14:41:38;14.48;;;7.43;;
75603;SDS011;64187;51.010;13.792;2023-01-25T14:52:20;17.63;;;8.27;;
75603;SDS011;64187;51.010;13.792;2023-01-25T14:57:35;17.63;;;8.10;;
75603;SDS011;64187;51.010;13.792;2023-01-25T15:02:39;17.77;;;7.70;;
75603;SDS011;64187;51.010;13.792;2023-01-25T15:07:54;16.00;;;8.80;;
75603;SDS011;64187;51.010;13.792;2023-01-25T15:12:57;18.65;;;8.52;;
75603;SDS011;64187;51.010;13.792;2023-01-25T15:23:40;16.35;;;8.85;;
75603;SDS011;64187;51.010;13.792;2023-01-25T15:28:40;18.05;;;9.35;;
75603;SDS011;64187;51.010;13.792;2023-01-25T15:33:39;18.35;;;9.35;;
75603;SDS011;64187;51.010;13.792;2023-01-25T15:38:38;17.10;;;8.70;;
75603;SDS011;64187;51.010;13.792;2023-01-25T15:43:37;23.00;;;10.25;;
75603;SDS011;64187;51.010;13.792;2023-01-25T15:48:37;19.75;;;9.63;;
75603;SDS011;64187;51.010;13.792;2023-01-25T15:53:39;17.58;;;8.07;;
75603;SDS011;64187;51.010;13.792;2023-01-25T15:58:38;8.60;;;3.95;;
75603;SDS011;64187;51.010;13.792;2023-01-25T16:03:39;18.20;;;8.32;;
75603;SDS011;64187;51.010;13.792;2023-01-25T16:08:38;22.63;;;9.05;;
75603;SDS011;64187;51.010;13.792;2023-01-25T16:13:37;16.48;;;8.98;;
75603;SDS011;64187;51.010;13.792;2023-01-25T16:18:38;18.23;;;9.38;;
75603;SDS011;64187;51.010;13.792;2023-01-25T16:23:37;17.63;;;8.43;;
75603;SDS011;64187;51.010;13.792;2023-01-25T16:28:36;18.02;;;9.07;;
75603;SDS011;64187;51.010;13.792;2023-01-25T16:33:38;18.65;;;9.32;;
75603;SDS011;64187;51.010;13.792;2023-01-25T16:38:37;16.23;;;8.80;;
75603;SDS011;64187;51.010;13.792;2023-01-25T16:43:36;19.80;;;9.30;;
75603;SDS011;64187;51.010;13.792;2023-01-25T16:48:40;24.67;;;10.90;;
75603;SDS011;64187;51.010;13.792;2023-01-25T16:53:39;20.23;;;9.55;;
75603;SDS011;64187;51.010;13.792;2023-01-25T16:58:38;21.15;;;11.35;;
75603;SDS011;64187;51.010;13.792;2023-01-25T17:03:37;22.90;;;11.15;;
75603;SDS011;64187;51.010;13.792;2023-01-25T17:08:36;20.10;;;10.18;;
75603;SDS011;64187;51.010;13.792;2023-01-25T17:13:35;25.17;;;12.52;;
75603;SDS011;64187;51.010;13.792;2023-01-25T17:18:34;22.17;;;11.88;;
75603;SDS011;64187;51.010;13.792;2023-01-25T17:23:34;25.10;;;12.32;;
75603;SDS011;64187;51.010;13.792;2023-01-25T17:28:34;23.60;;;11.07;;
75603;SDS011;64187;51.010;13.792;2023-01-25T17:33:33;25.50;;;10.95;;
75603;SDS011;64187;51.010;13.792;2023-01-25T17:38:32;23.98;;;11.18;;
75603;SDS011;64187;51.010;13.792;2023-01-25T17:43:31;23.38;;;11.60;;
75603;SDS011;64187;51.010;13.792;2023-01-25T17:48:31;21.65;;;10.40;;
75603;SDS011;64187;51.010;13.792;2023-01-25T17:53:30;22.27;;;11.38;;
75603;SDS011;64187;51.010;13.792;2023-01-25T17:58:30;23.00;;;12.20;;
75603;SDS011;64187;51.010;13.792;2023-01-25T18:03:31;24.25;;;11.38;;
75603;SDS011;64187;51.010;13.792;2023-01-25T18:08:32;27.35;;;11.57;;
75603;SDS011;64187;51.010;13.792;2023-01-25T18:13:31;31.17;;;14.10;;
75603;SDS011;64187;51.010;13.792;2023-01-25T18:18:30;23.98;;;11.98;;
75603;SDS011;64187;51.010;13.792;2023-01-25T18:23:28;24.42;;;11.85;;
75603;SDS011;64187;51.010;13.792;2023-01-25T18:28:27;24.02;;;12.43;;
75603;SDS011;64187;51.010;13.792;2023-01-25T18:33:26;29.83;;;13.50;;
75603;SDS011;64187;51.010;13.792;2023-01-25T18:38:25;27.23;;;13.15;;
75603;SDS011;64187;51.010;13.792;2023-01-25T18:43:24;27.38;;;12.75;;
75603;SDS011;64187;51.010;13.792;2023-01-25T18:48:25;27.30;;;13.52;;
75603;SDS011;64187;51.010;13.792;2023-01-25T18:53:29;24.88;;;12.57;;
75603;SDS011;64187;51.010;13.792;2023-01-25T18:58:30;27.30;;;13.30;;
75603;SDS011;64187;51.010;13.792;2023-01-25T19:03:29;28.05;;;13.27;;
75603;SDS011;64187;51.010;13.792;2023-01-25T19:08:28;27.48;;;13.55;;
75603;SDS011;64187;51.010;13.792;2023-01-25T19:13:33;27.00;;;12.52;;
75603;SDS011;64187;51.010;13.792;2023-01-25T19:18:34;26.63;;;13.43;;
75603;SDS011;64187;51.010;13.792;2023-01-25T19:23:35;30.27;;;14.85;;
75603;SDS011;64187;51.010;13.792;2023-01-25T19:28:35;33.10;;;14.18;;
75603;SDS011;64187;51.010;13.792;2023-01-25T19:33:36;31.25;;;14.07;;
75603;SDS011;64187;51.010;13.792;2023-01-25T19:38:38;31.50;;;14.18;;
75603;SDS011;64187;51.010;13.792;2023-01-25T19:43:38;24.90;;;11.90;;
75603;SDS011;64187;51.010;13.792;2023-01-25T19:48:39;26.38;;;12.27;;
75603;SDS011;64187;51.010;13.792;2023-01-25T19:53:39;28.33;;;12.38;;
75603;SDS011;64187;51.010;13.792;2023-01-25T19:58:44;30.00;;;13.50;;
75603;SDS011;64187;51.010;13.792;2023-01-25T20:03:44;30.42;;;12.65;;
75603;SDS011;64187;51.010;13.792;2023-01-25T20:08:43;26.08;;;12.88;;
75603;SDS011;64187;51.010;13.792;2023-01-25T20:13:43;30.02;;;14.68;;
75603;SDS011;64187;51.010;13.792;2023-01-25T20:18:43;27.80;;;13.43;;
75603;SDS011;64187;51.010;13.792;2023-01-25T20:23:43;30.38;;;13.48;;
75603;SDS011;64187;51.010;13.792;2023-01-25T20:28:44;30.67;;;13.18;;
75603;SDS011;64187;51.010;13.792;2023-01-25T20:33:44;27.45;;;13.55;;
75603;SDS011;64187;51.010;13.792;2023-01-25T20:38:43;30.67;;;14.05;;
75603;SDS011;64187;51.010;13.792;2023-01-25T20:43:46;29.27;;;13.98;;
75603;SDS011;64187;51.010;13.792;2023-01-25T20:53:45;30.08;;;14.18;;
75603;SDS011;64187;51.010;13.792;2023-01-25T20:58:46;29.58;;;13.57;;
75603;SDS011;64187;51.010;13.792;2023-01-25T21:03:49;30.55;;;13.02;;
75603;SDS011;64187;51.010;13.792;2023-01-25T21:08:51;26.27;;;13.63;;
75603;SDS011;64187;51.010;13.792;2023-01-25T21:13:51;30.20;;;13.10;;
75603;SDS011;64187;51.010;13.792;2023-01-25T21:18:52;28.27;;;12.88;;
75603;SDS011;64187;51.010;13.792;2023-01-25T21:23:52;28.67;;;12.88;;
75603;SDS011;64187;51.010;13.792;2023-01-25T21:28:54;29.40;;;13.52;;
75603;SDS011;64187;51.010;13.792;2023-01-25T21:33:53;31.73;;;12.68;;
75603;SDS011;64187;51.010;13.792;2023-01-25T21:38:53;35.88;;;15.65;;
75603;SDS011;64187;51.010;13.792;2023-01-25T21:43:53;34.08;;;15.80;;
75603;SDS011;64187;51.010;13.792;2023-01-25T21:49:11;35.58;;;14.55;;
75603;SDS011;64187;51.010;13.792;2023-01-25T21:54:30;32.03;;;15.23;;
75603;SDS011;64187;51.010;13.792;2023-01-25T21:59:30;33.20;;;14.70;;
75603;SDS011;64187;51.010;13.792;2023-01-25T22:04:29;33.90;;;16.00;;
75603;SDS011;64187;51.010;13.792;2023-01-25T22:09:33;32.47;;;15.13;;
75603;SDS011;64187;51.010;13.792;2023-01-25T22:14:32;29.65;;;13.60;;
75603;SDS011;64187;51.010;13.792;2023-01-25T22:19:32;30.15;;;14.93;;
75603;SDS011;64187;51.010;13.792;2023-01-25T22:24:31;31.33;;;14.60;;
75603;SDS011;64187;51.010;13.792;2023-01-25T22:29:31;38.47;;;15.68;;
75603;SDS011;64187;51.010;13.792;2023-01-25T22:34:31;31.50;;;14.00;;
75603;SDS011;64187;51.010;13.792;2023-01-25T22:39:30;28.70;;;12.48;;
75603;SDS011;64187;51.010;13.792;2023-01-25T22:44:29;32.28;;;15.20;;
75603;SDS011;64187;51.010;13.792;2023-01-25T22:49:27;28.98;;;13.27;;
75603;SDS011;64187;51.010;13.792;2023-01-25T22:54:26;29.25;;;13.25;;
75603;SDS011;64187;51.010;13.792;2023-01-25T22:59:25;26.25;;;12.90;;
75603;SDS011;64187;51.010;13.792;2023-01-25T23:04:24;27.98;;;12.40;;
75603;SDS011;64187;51.010;13.792;2023-01-25T23:09:23;26.10;;;12.18;;
75603;SDS011;64187;51.010;13.792;2023-01-25T23:14:22;25.52;;;12.60;;
75603;SDS011;64187;51.010;13.792;2023-01-25T23:19:39;26.73;;;13.05;;
75603;SDS011;64187;51.010;13.792;2023-01-25T23:24:38;25.55;;;11.80;;
75603;SDS011;64187;51.010;13.792;2023-01-25T23:29:37;29.17;;;13.27;;
75603;SDS011;64187;51.010;13.792;2023-01-25T23:34:35;27.83;;;13.02;;
75603;SDS011;64187;51.010;13.792;2023-01-25T23:39:37;30.05;;;14.50;;
75603;SDS011;64187;51.010;13.792;2023-01-25T23:44:36;31.88;;;14.32;;
75603;SDS011;64187;51.010;13.792;2023-01-25T23:49:35;35.13;;;15.82;;
75603;SDS011;64187;51.010;13.792;2023-01-25T23:54:34;33.60;;;15.93;;
75603;SDS011;64187;51.010;13.792;2023-01-25T23:59:33;34.72;;;16.27;;
